Gaiman, Argentina
Current Conditions -  °F | °C
As of 2:00 AM on Thursday 27 Nov 2014 (Local Time) from SAVC Reporting Station
Clear Clear  
Wind Chill: 63°   Ceiling: Unl
Heat Index: 63°   Visibility: 6mi
Dew Point: 30°   Wind: 13mph
Humidity: 30%   Direction: 320°NW
Pressure: 29.85"   Gusts: NA
Location:  43.28°S, 65.48°W
Report Text: SAVC 270500Z 32011KT CAVOK 17/M01 Q1011
Loading
Personal Weather Stations






























Interactive Weather Map New forecast layout! Learn more

10-Day Weather Forecast

Advertisements
Track Severe Weather on mobile